Time;durP1;ratioP1;P1;durP2;ratioP2;P2;SDS_P1;SDS_P2;PMS_P1;PMS_P2;Temp;Humidity;BMP_temperature;BMP_pressure;BME280_temperature;BME280_humidity;BME280_pressure;Samples;Min_cycle;Max_cycle;Signal;HPM_P1;HPM_P2
2023/10/20 00:00:20;;;;;;;84.22;37.53;;;8.80;99.90;;;;;;5042498;28;20040;-54
2023/10/20 00:02:46;;;;;;;105.25;43.97;;;8.80;99.90;;;;;;5047132;28;20839;-55
2023/10/20 00:05:13;;;;;;;85.85;36.63;;;8.80;99.90;;;;;;5042167;28;20063;-55
2023/10/20 00:07:39;;;;;;;109.45;45.03;;;8.90;99.90;;;;;;5040571;28;20073;-54
2023/10/20 00:10:09;;;;;;;74.20;35.50;;;8.90;99.90;;;;;;5032980;28;20091;-53
2023/10/20 00:12:35;;;;;;;85.47;36.42;;;8.80;99.90;;;;;;5036449;28;20112;-56
2023/10/20 00:15:01;;;;;;;85.45;37.65;;;8.80;99.90;;;;;;5041785;28;20491;-56
2023/10/20 00:17:26;;;;;;;83.38;38.00;;;8.90;99.90;;;;;;5041467;28;20132;-56
2023/10/20 00:19:53;;;;;;;85.37;37.97;;;8.80;99.90;;;;;;5043315;28;20113;-56
2023/10/20 00:22:18;;;;;;;;;;;8.80;99.90;;;;;;5040368;28;20326;-54
2023/10/20 00:24:45;;;;;;;99.75;40.45;;;8.80;99.90;;;;;;5034521;28;19924;-56
2023/10/20 00:27:13;;;;;;;;;;;8.80;99.90;;;;;;5039829;28;20040;-54
2023/10/20 00:29:39;;;;;;;89.03;38.63;;;8.80;99.90;;;;;;5032764;28;19971;-55
2023/10/20 00:32:05;;;;;;;;;;;8.80;99.90;;;;;;5037717;28;20098;-54
2023/10/20 00:34:31;;;;;;;92.70;38.63;;;8.80;99.90;;;;;;5041236;28;19999;-54
2023/10/20 00:36:57;;;;;;;82.10;37.38;;;8.70;99.90;;;;;;5043469;28;20071;-53
2023/10/20 00:39:23;;;;;;;78.57;35.97;;;8.70;99.90;;;;;;5042609;28;20041;-55
2023/10/20 00:41:49;;;;;;;82.95;36.25;;;8.70;99.90;;;;;;5040040;28;20421;-55
2023/10/20 00:44:14;;;;;;;83.78;37.38;;;8.70;99.90;;;;;;5041042;28;20043;-55
2023/10/20 00:46:43;;;;;;;93.57;36.83;;;8.70;99.90;;;;;;5035982;28;20033;-50
2023/10/20 00:49:10;;;;;;;84.00;34.40;;;8.70;99.90;;;;;;5041619;28;20296;-52
2023/10/20 00:51:36;;;;;;;82.60;34.33;;;8.70;99.90;;;;;;5038095;28;20084;-51
2023/10/20 00:54:02;;;;;;;83.50;35.85;;;8.70;99.90;;;;;;5036945;28;20029;-53
2023/10/20 00:56:30;;;;;;;80.95;35.47;;;8.70;99.90;;;;;;5041464;28;20052;-51
2023/10/20 00:58:56;;;;;;;78.53;34.67;;;8.70;99.90;;;;;;5040516;28;20571;-53
2023/10/20 01:01:21;;;;;;;104.57;37.90;;;8.70;99.90;;;;;;5038063;28;20113;-52
2023/10/20 01:03:48;;;;;;;83.43;35.07;;;8.70;99.90;;;;;;5041255;28;20305;-50
2023/10/20 01:06:14;;;;;;;96.55;37.90;;;8.70;99.90;;;;;;5044088;28;20045;-51
2023/10/20 01:08:39;;;;;;;101.90;36.65;;;8.70;99.90;;;;;;5045763;28;20041;-55
2023/10/20 01:11:05;;;;;;;94.97;37.90;;;8.70;99.90;;;;;;5041487;28;20782;-52
2023/10/20 01:13:31;;;;;;;82.18;33.35;;;8.70;99.90;;;;;;5040885;28;20037;-53
2023/10/20 01:15:57;;;;;;;83.78;34.05;;;8.70;99.90;;;;;;5047573;28;20537;-52
2023/10/20 01:18:22;;;;;;;94.30;38.43;;;8.70;99.90;;;;;;5044918;28;20037;-55
2023/10/20 01:20:48;;;;;;;99.37;35.70;;;8.60;99.90;;;;;;5044670;28;20068;-55
2023/10/20 01:23:13;;;;;;;109.53;39.60;;;8.70;99.90;;;;;;5044146;28;20777;-52
2023/10/20 01:25:39;;;;;;;80.10;34.20;;;8.70;99.90;;;;;;5040801;28;20728;-56
2023/10/20 01:28:05;;;;;;;81.60;34.47;;;8.70;99.90;;;;;;5050591;28;20045;-54
2023/10/20 01:30:30;;;;;;;72.43;33.95;;;8.70;99.90;;;;;;5044968;28;20495;-56
2023/10/20 01:32:56;;;;;;;91.75;33.90;;;8.70;99.90;;;;;;5042383;28;20044;-52
2023/10/20 01:35:22;;;;;;;73.50;31.88;;;8.70;99.90;;;;;;5039817;28;20094;-52
2023/10/20 01:37:47;;;;;;;90.32;36.25;;;8.70;99.90;;;;;;5045413;28;20442;-54
2023/10/20 01:40:13;;;;;;;81.13;35.17;;;8.70;99.90;;;;;;5047428;28;20034;-51
2023/10/20 01:42:39;;;;;;;79.85;34.90;;;8.70;99.90;;;;;;5047512;28;20056;-51
2023/10/20 01:45:06;;;;;;;80.40;34.60;;;8.60;99.90;;;;;;5043008;28;20084;-51
2023/10/20 01:47:32;;;;;;;88.05;36.90;;;8.60;99.90;;;;;;5048065;28;20069;-51
2023/10/20 01:49:57;;;;;;;88.43;35.63;;;8.60;99.90;;;;;;5047524;28;20392;-50
2023/10/20 01:52:23;;;;;;;99.07;40.95;;;8.60;99.90;;;;;;5046396;28;20396;-52
2023/10/20 01:54:48;;;;;;;95.17;36.63;;;8.60;99.90;;;;;;5047334;28;20036;-52
2023/10/20 01:57:14;;;;;;;75.27;35.50;;;8.60;99.90;;;;;;5046188;28;20167;-50
2023/10/20 01:59:40;;;;;;;82.97;35.95;;;8.60;99.90;;;;;;5048690;28;20554;-54
2023/10/20 02:02:06;;;;;;;103.22;39.38;;;8.60;99.90;;;;;;5046935;28;20030;-54
2023/10/20 02:04:31;;;;;;;94.30;37.38;;;8.60;99.90;;;;;;5042216;28;20570;-52
2023/10/20 02:06:57;;;;;;;93.07;38.07;;;8.60;99.90;;;;;;5045316;28;20523;-50
2023/10/20 02:09:25;;;;;;;78.67;34.83;;;8.60;99.90;;;;;;5044563;28;20809;-51
2023/10/20 02:11:52;;;;;;;85.05;33.63;;;8.60;99.90;;;;;;5044325;28;20127;-51
2023/10/20 02:14:17;;;;;;;;;;;8.60;99.90;;;;;;5048799;28;20047;-52
2023/10/20 02:16:43;;;;;;;89.90;38.75;;;8.60;99.90;;;;;;5042467;28;19917;-50
2023/10/20 02:19:10;;;;;;;79.47;35.73;;;8.60;99.90;;;;;;5045734;28;20065;-52
2023/10/20 02:21:36;;;;;;;76.82;35.10;;;8.60;99.90;;;;;;5046354;28;20342;-53
2023/10/20 02:24:02;;;;;;;;;;;8.60;99.90;;;;;;5043507;28;20045;-54
2023/10/20 02:26:28;;;;;;;84.57;37.35;;;8.60;99.90;;;;;;5044857;28;19940;-52
2023/10/20 02:28:54;;;;;;;72.20;33.38;;;8.60;99.90;;;;;;5043505;28;20041;-52
2023/10/20 02:31:20;;;;;;;85.03;37.97;;;8.60;99.90;;;;;;5039548;28;20045;-54
2023/10/20 02:33:46;;;;;;;97.90;38.00;;;8.60;99.90;;;;;;5043352;28;20033;-52
2023/10/20 02:36:16;;;;;;;;;;;8.60;99.90;;;;;;5040747;28;20116;-52
2023/10/20 02:38:42;;;;;;;79.82;34.17;;;8.60;99.90;;;;;;5045109;28;20319;-52
2023/10/20 02:41:08;;;;;;;81.47;35.50;;;8.60;99.90;;;;;;5043773;28;20121;-51
2023/10/20 02:43:34;;;;;;;;;;;8.60;99.90;;;;;;5045909;28;20040;-52
2023/10/20 02:45:59;;;;;;;92.20;38.53;;;8.60;99.90;;;;;;5044925;28;19921;-50
2023/10/20 02:48:27;;;;;;;80.88;37.20;;;8.60;99.90;;;;;;5043431;28;20068;-51
2023/10/20 02:50:52;;;;;;;75.85;34.15;;;8.60;99.90;;;;;;5044827;28;20033;-51
2023/10/20 02:53:18;;;;;;;71.68;35.35;;;8.60;99.90;;;;;;5043393;28;20599;-53
2023/10/20 02:55:45;;;;;;;78.27;35.87;;;8.60;99.90;;;;;;5045614;28;20112;-53
2023/10/20 02:58:11;;;;;;;76.70;36.78;;;8.60;99.90;;;;;;5040961;28;20120;-54
2023/10/20 03:00:42;;;;;;;90.03;36.97;;;8.60;99.90;;;;;;5047910;28;20062;-55
2023/10/20 03:03:08;;;;;;;78.82;35.22;;;8.60;99.90;;;;;;5043934;28;20033;-55
2023/10/20 03:05:35;;;;;;;82.55;36.67;;;8.50;99.90;;;;;;5043963;28;20403;-53
2023/10/20 03:08:01;;;;;;;80.80;34.40;;;8.60;99.90;;;;;;5040484;28;20379;-52
2023/10/20 03:10:27;;;;;;;67.15;33.30;;;8.50;99.90;;;;;;5043700;28;20033;-56
2023/10/20 03:12:52;;;;;;;67.97;32.50;;;8.60;99.90;;;;;;5043694;28;20086;-56
2023/10/20 03:15:18;;;;;;;71.10;33.37;;;8.50;99.90;;;;;;5044252;28;20040;-54
2023/10/20 03:17:44;;;;;;;81.13;36.03;;;8.60;99.90;;;;;;5047295;28;20052;-53
2023/10/20 03:20:14;;;;;;;65.07;33.07;;;8.60;99.90;;;;;;5046253;28;20557;-57
2023/10/20 03:22:43;;;;;;;67.28;32.97;;;8.50;99.90;;;;;;5038999;28;20040;-57
2023/10/20 03:25:10;;;;;;;68.05;32.33;;;8.60;99.90;;;;;;5041321;28;20041;-55
2023/10/20 03:27:37;;;;;;;57.33;29.63;;;8.50;99.90;;;;;;5042576;28;20503;-54
2023/10/20 03:30:05;;;;;;;72.28;33.65;;;8.50;99.90;;;;;;5042321;28;20033;-55
2023/10/20 03:32:32;;;;;;;70.25;31.35;;;8.50;99.90;;;;;;5034578;28;20049;-54
2023/10/20 03:34:57;;;;;;;;;;;8.50;99.90;;;;;;5037496;28;20045;-54
2023/10/20 03:37:23;;;;;;;64.65;31.67;;;8.50;99.90;;;;;;5042968;28;19923;-55
2023/10/20 03:39:50;;;;;;;67.90;30.43;;;8.50;99.90;;;;;;5043784;28;20041;-56
2023/10/20 03:42:16;;;;;;;63.28;30.20;;;8.50;99.90;;;;;;5046211;28;20499;-54
2023/10/20 03:44:43;;;;;;;76.75;33.03;;;8.50;99.90;;;;;;5044712;28;20115;-55
2023/10/20 03:47:09;;;;;;;63.63;31.75;;;8.50;99.90;;;;;;5045215;28;20037;-54
2023/10/20 03:49:35;;;;;;;63.83;29.83;;;8.50;99.90;;;;;;5044360;28;20112;-55
2023/10/20 03:52:06;;;;;;;71.93;31.60;;;8.50;99.90;;;;;;5044198;28;20116;-55
2023/10/20 03:54:33;;;;;;;69.97;33.38;;;8.50;99.90;;;;;;5043649;28;20456;-55
2023/10/20 03:56:59;;;;;;;58.22;30.00;;;8.50;99.90;;;;;;5042932;28;20041;-55
2023/10/20 03:59:25;;;;;;;60.23;30.57;;;8.50;99.90;;;;;;5046410;28;20055;-55
2023/10/20 04:01:53;;;;;;;78.68;32.88;;;8.50;99.90;;;;;;5045900;28;20291;-54
2023/10/20 04:04:19;;;;;;;74.57;31.75;;;8.50;99.90;;;;;;5046488;28;20487;-51
2023/10/20 04:06:45;;;;;;;70.20;30.95;;;8.50;99.90;;;;;;5042219;28;20033;-54
2023/10/20 04:09:11;;;;;;;75.80;33.45;;;8.50;99.90;;;;;;5039417;28;20029;-56
2023/10/20 04:11:37;;;;;;;;;;;8.50;99.90;;;;;;5044753;28;20086;-51
2023/10/20 04:14:06;;;;;;;72.65;32.65;;;8.50;99.90;;;;;;5043580;28;19916;-55
2023/10/20 04:16:37;;;;;;;59.88;29.08;;;8.40;99.90;;;;;;5046846;28;20079;-57
2023/10/20 04:19:04;;;;;;;79.95;31.95;;;8.40;99.90;;;;;;5043165;28;20041;-57
2023/10/20 04:21:30;;;;;;;65.00;30.88;;;8.40;99.90;;;;;;5045249;28;20048;-55
2023/10/20 04:23:56;;;;;;;71.35;32.00;;;8.40;99.90;;;;;;5039767;28;20400;-55
2023/10/20 04:26:22;;;;;;;65.82;31.83;;;8.40;99.90;;;;;;5044090;28;20415;-54
2023/10/20 04:29:02;;;;;;;66.68;31.55;;;8.40;99.90;;;;;;5035667;28;20056;-55
2023/10/20 04:48:14;;;;;;;58.55;30.88;;;8.40;99.90;;;;;;5038598;28;20040;-55
2023/10/20 04:53:52;;;;;;;58.95;30.58;;;8.40;99.90;;;;;;5050187;28;20044;-53
2023/10/20 04:56:34;;;;;;;64.40;30.15;;;8.40;99.90;;;;;;5043024;28;20415;-55
2023/10/20 04:59:45;;;;;;;55.10;28.75;;;8.40;99.90;;;;;;5047617;28;20041;-58
2023/10/20 05:01:47;;;;;;;58.33;29.35;;;8.40;99.90;;;;;;5039822;28;20056;-57
2023/10/20 05:04:21;;;;;;;55.80;26.48;;;8.40;99.90;;;;;;5050066;28;20107;-56
2023/10/20 05:06:54;;;;;;;54.20;28.40;;;8.40;99.90;;;;;;5048158;28;20443;-58
2023/10/20 05:09:24;;;;;;;50.53;27.70;;;8.40;99.90;;;;;;5047525;28;20043;-55
2023/10/20 05:11:50;;;;;;;49.20;26.08;;;8.40;99.90;;;;;;5047513;28;20052;-55
2023/10/20 05:14:17;;;;;;;52.55;28.60;;;8.30;99.90;;;;;;5048405;28;20463;-56
2023/10/20 05:16:43;;;;;;;56.35;27.48;;;8.30;99.90;;;;;;5050442;28;20653;-55
2023/10/20 05:19:10;;;;;;;45.93;24.63;;;8.30;99.90;;;;;;5048736;28;20302;-55
2023/10/20 05:21:38;;;;;;;45.80;25.88;;;8.30;99.90;;;;;;5048495;28;20064;-56
2023/10/20 05:24:04;;;;;;;52.58;26.70;;;8.30;99.90;;;;;;5046542;28;20095;-54
2023/10/20 05:26:31;;;;;;;48.63;25.42;;;8.30;99.90;;;;;;5048976;28;20033;-55
2023/10/20 05:28:57;;;;;;;50.92;26.92;;;8.30;99.90;;;;;;5041493;28;20041;-55
2023/10/20 05:31:27;;;;;;;50.28;25.33;;;8.30;99.90;;;;;;5036054;28;20472;-55
2023/10/20 05:33:56;;;;;;;39.97;22.45;;;8.30;99.90;;;;;;5047149;28;20041;-56
2023/10/20 05:36:21;;;;;;;45.13;24.20;;;8.30;99.90;;;;;;5049806;28;20392;-55
2023/10/20 05:38:47;;;;;;;43.03;22.97;;;8.30;99.90;;;;;;5040222;28;20029;-51
2023/10/20 05:41:13;;;;;;;43.78;23.92;;;8.30;99.90;;;;;;5039267;28;20040;-52
2023/10/20 05:43:38;;;;;;;43.55;23.73;;;8.30;99.90;;;;;;5048786;28;20040;-53
2023/10/20 05:46:04;;;;;;;40.40;23.80;;;8.30;99.90;;;;;;5044947;28;20045;-54
2023/10/20 05:48:31;;;;;;;45.72;24.08;;;8.30;99.90;;;;;;5041130;28;20358;-53
2023/10/20 05:50:57;;;;;;;42.42;22.55;;;8.30;99.90;;;;;;5041574;28;20042;-50
2023/10/20 05:53:26;;;;;;;36.35;20.20;;;8.30;99.90;;;;;;5041601;28;20439;-52
2023/10/20 05:55:52;;;;;;;43.30;22.73;;;8.20;99.90;;;;;;5039916;28;20121;-55
2023/10/20 05:58:18;;;;;;;37.63;20.65;;;8.30;99.90;;;;;;5044153;28;20104;-54
2023/10/20 06:00:43;;;;;;;37.00;20.10;;;8.20;99.90;;;;;;5046248;28;20061;-56
2023/10/20 06:03:09;;;;;;;39.47;19.00;;;8.20;99.90;;;;;;5047118;28;20069;-50
2023/10/20 06:05:38;;;;;;;36.25;20.77;;;8.30;99.90;;;;;;5049546;28;20052;-54
2023/10/20 06:08:04;;;;;;;34.80;20.10;;;8.20;99.90;;;;;;5041656;28;20653;-51
2023/10/20 06:10:30;;;;;;;39.75;20.95;;;8.30;99.90;;;;;;5039003;28;20043;-50
2023/10/20 06:12:55;;;;;;;;;;;8.20;99.90;;;;;;5037956;28;20044;-54
2023/10/20 06:15:22;;;;;;;33.42;18.95;;;8.20;99.90;;;;;;5045265;28;19916;-51
2023/10/20 06:17:49;;;;;;;32.50;18.98;;;8.30;99.90;;;;;;5050033;28;20040;-51
2023/10/20 06:20:15;;;;;;;30.98;19.20;;;8.20;99.90;;;;;;5048085;28;20048;-54
2023/10/20 06:22:42;;;;;;;29.65;18.02;;;8.20;99.90;;;;;;5046459;28;20098;-50
2023/10/20 06:25:14;;;;;;;30.95;17.77;;;8.20;99.90;;;;;;5048408;28;20040;-51
2023/10/20 06:27:42;;;;;;;29.30;16.52;;;8.20;99.90;;;;;;5046548;28;20052;-50
2023/10/20 06:30:22;;;;;;;29.60;16.70;;;8.20;99.90;;;;;;5042802;28;20033;-50
2023/10/20 06:35:51;;;;;;;22.92;16.10;;;8.20;99.90;;;;;;5032989;28;20045;-56
2023/10/20 06:38:44;;;;;;;30.30;16.50;;;8.20;99.90;;;;;;5050121;28;20037;-55
2023/10/20 06:41:11;;;;;;;20.98;15.27;;;8.20;99.90;;;;;;5045660;28;20116;-52
2023/10/20 06:43:36;;;;;;;23.83;14.05;;;8.20;99.90;;;;;;5048886;28;20036;-55
2023/10/20 06:46:02;;;;;;;28.00;16.13;;;8.20;99.90;;;;;;5036337;28;20038;-54
2023/10/20 06:48:28;;;;;;;24.15;14.38;;;8.20;99.90;;;;;;5027711;28;20276;-54
2023/10/20 06:50:54;;;;;;;;;;;8.20;99.90;;;;;;5029651;28;20033;-51
2023/10/20 06:53:20;;;;;;;21.58;13.13;;;8.20;99.90;;;;;;5033515;28;19928;-56
2023/10/20 06:55:46;;;;;;;19.33;12.48;;;8.20;99.90;;;;;;5035917;28;20028;-55
2023/10/20 06:58:13;;;;;;;20.83;13.25;;;8.20;99.90;;;;;;5041137;28;20037;-54
2023/10/20 07:00:39;;;;;;;24.45;14.63;;;8.30;99.90;;;;;;5029555;28;20048;-55
2023/10/20 07:03:04;;;;;;;25.10;15.13;;;8.30;99.90;;;;;;5029901;28;20061;-55
2023/10/20 07:05:31;;;;;;;21.08;13.32;;;8.30;99.90;;;;;;5024072;28;20544;-55
2023/10/20 07:07:59;;;;;;;18.55;12.27;;;8.30;99.90;;;;;;5029030;28;20036;-55
2023/10/20 07:10:27;;;;;;;19.48;12.52;;;8.30;99.90;;;;;;5020901;28;20152;-56
2023/10/20 07:12:52;;;;;;;20.83;13.00;;;8.20;99.90;;;;;;5038940;28;20435;-58
2023/10/20 07:15:18;;;;;;;22.17;13.03;;;8.20;99.90;;;;;;5041416;28;20087;-54
2023/10/20 07:17:44;;;;;;;21.73;12.40;;;8.30;99.90;;;;;;5035747;28;20072;-54
2023/10/20 07:20:09;;;;;;;20.83;12.05;;;8.20;99.90;;;;;;5042864;28;20284;-57
2023/10/20 07:22:35;;;;;;;20.63;11.05;;;8.20;99.90;;;;;;5041605;28;20038;-55
2023/10/20 07:25:01;;;;;;;20.90;13.63;;;8.20;99.90;;;;;;5030179;28;20040;-55
2023/10/20 07:27:26;;;;;;;18.30;11.13;;;8.20;99.90;;;;;;5031158;28;20160;-53
2023/10/20 07:29:52;;;;;;;15.47;10.83;;;8.20;99.90;;;;;;5039669;28;20725;-53
2023/10/20 07:32:18;;;;;;;18.67;12.15;;;8.20;99.90;;;;;;5041037;28;20295;-51
2023/10/20 07:34:43;;;;;;;15.90;11.17;;;8.20;99.90;;;;;;5047648;28;20116;-54
2023/10/20 07:37:10;;;;;;;17.60;10.88;;;8.20;99.90;;;;;;5038730;28;20392;-58
2023/10/20 07:39:37;;;;;;;14.55;9.70;;;8.20;99.90;;;;;;5023397;28;20045;-55
2023/10/20 07:42:02;;;;;;;17.00;10.65;;;8.10;99.90;;;;;;5030935;28;20040;-54
2023/10/20 07:44:28;;;;;;;16.27;9.40;;;8.20;99.90;;;;;;5033234;28;20495;-54
2023/10/20 07:46:54;;;;;;;20.98;10.45;;;8.20;99.90;;;;;;5028293;28;20299;-54
2023/10/20 07:49:21;;;;;;;12.57;8.27;;;8.20;99.90;;;;;;5033866;28;20056;-55
2023/10/20 07:51:47;;;;;;;18.90;9.68;;;8.20;99.90;;;;;;5033842;28;20098;-54
2023/10/20 07:54:13;;;;;;;14.32;8.88;;;8.10;99.90;;;;;;5038487;28;20075;-54
2023/10/20 07:56:38;;;;;;;14.07;9.02;;;8.10;99.90;;;;;;5034367;28;20033;-53
2023/10/20 07:59:04;;;;;;;12.05;7.53;;;8.10;99.90;;;;;;5033716;28;20046;-55
2023/10/20 08:01:30;;;;;;;13.23;8.00;;;8.10;99.90;;;;;;5028113;28;20095;-55
2023/10/20 08:03:56;;;;;;;12.57;6.70;;;8.10;99.90;;;;;;5029586;28;20462;-58
2023/10/20 08:06:23;;;;;;;10.80;6.73;;;8.20;99.90;;;;;;5027531;28;20033;-57
2023/10/20 08:08:49;;;;;;;10.02;6.90;;;8.20;99.90;;;;;;5033886;28;20288;-56
2023/10/20 08:11:15;;;;;;;9.50;5.47;;;8.20;99.90;;;;;;5034021;28;20047;-51
2023/10/20 08:13:41;;;;;;;8.20;6.20;;;8.20;99.90;;;;;;5034521;28;20547;-56
2023/10/20 08:16:07;;;;;;;9.00;5.78;;;8.20;99.90;;;;;;5029172;28;20113;-56
2023/10/20 08:18:34;;;;;;;8.15;5.28;;;8.20;99.90;;;;;;5031483;28;20033;-55
2023/10/20 08:21:07;;;;;;;7.47;5.40;;;8.20;99.90;;;;;;5030906;28;20617;-58
2023/10/20 08:23:34;;;;;;;6.93;4.13;;;8.20;99.90;;;;;;5018671;28;20156;-52
2023/10/20 08:26:00;;;;;;;9.27;4.65;;;8.20;99.90;;;;;;5027253;28;20041;-56
2023/10/20 08:28:26;;;;;;;12.32;4.75;;;8.20;99.90;;;;;;5030971;28;20037;-57
2023/10/20 08:31:13;;;;;;;5.38;4.22;;;8.10;99.90;;;;;;5023558;28;20128;-54
2023/10/20 08:33:38;;;;;;;7.35;3.65;;;8.10;99.90;;;;;;5027131;28;20037;-54
2023/10/20 08:36:12;;;;;;;5.70;3.93;;;8.20;99.90;;;;;;5031702;28;20246;-53
2023/10/20 08:38:47;;;;;;;5.82;3.53;;;8.20;99.90;;;;;;5031121;28;20693;-55
2023/10/20 08:41:21;;;;;;;4.38;3.17;;;8.10;99.90;;;;;;5030992;28;20071;-56
2023/10/20 08:43:47;;;;;;;4.25;2.90;;;8.10;99.90;;;;;;5024807;28;20112;-56
2023/10/20 08:46:15;;;;;;;2.97;1.95;;;8.10;99.90;;;;;;5031534;28;20057;-55
2023/10/20 08:48:45;;;;;;;5.68;2.72;;;8.20;99.90;;;;;;5019901;28;20116;-55
2023/10/20 08:51:13;;;;;;;2.65;2.42;;;8.20;99.90;;;;;;5023948;28;20349;-56
2023/10/20 08:53:39;;;;;;;3.40;2.10;;;8.20;99.90;;;;;;5032845;28;20041;-58
2023/10/20 08:56:09;;;;;;;3.47;2.38;;;8.20;99.90;;;;;;5034633;28;20045;-57
2023/10/20 08:58:35;;;;;;;3.83;1.70;;;8.20;99.90;;;;;;5029667;28;20036;-54
2023/10/20 09:01:03;;;;;;;1.67;1.58;;;8.20;99.90;;;;;;5029687;28;20514;-54
2023/10/20 09:03:39;;;;;;;3.33;1.77;;;8.20;99.90;;;;;;5031382;28;20518;-54
2023/10/20 09:06:07;;;;;;;2.42;1.73;;;8.20;99.90;;;;;;5031136;28;20405;-57
2023/10/20 09:08:33;;;;;;;1.67;1.20;;;8.20;99.90;;;;;;5031029;28;20132;-56
2023/10/20 09:10:59;;;;;;;3.90;1.88;;;8.20;99.90;;;;;;5028869;28;20111;-55
2023/10/20 09:13:36;;;;;;;1.65;0.90;;;8.20;99.90;;;;;;5032568;28;20048;-52
2023/10/20 09:16:05;;;;;;;1.95;1.08;;;8.20;99.90;;;;;;5029510;28;20040;-55
2023/10/20 09:18:34;;;;;;;2.63;1.05;;;8.20;99.90;;;;;;5030307;28;20044;-53
2023/10/20 09:21:06;;;;;;;2.22;1.17;;;8.20;99.90;;;;;;5031250;28;20135;-53
2023/10/20 09:23:32;;;;;;;2.25;0.80;;;8.20;99.90;;;;;;5026180;28;20457;-56
2023/10/20 09:25:58;;;;;;;1.58;1.10;;;8.20;99.90;;;;;;5024415;28;20573;-55
2023/10/20 09:28:24;;;;;;;1.55;0.90;;;8.20;99.90;;;;;;5027709;28;20038;-53
2023/10/20 09:30:50;;;;;;;0.77;0.60;;;8.20;99.90;;;;;;5023306;28;20045;-56
2023/10/20 09:33:15;;;;;;;1.23;0.73;;;8.20;99.90;;;;;;5029139;28;20430;-57
2023/10/20 09:35:42;;;;;;;1.13;0.80;;;8.20;99.90;;;;;;5027862;28;20497;-55
2023/10/20 09:38:14;;;;;;;0.80;0.60;;;8.20;99.90;;;;;;5030502;28;20293;-56
2023/10/20 09:40:41;;;;;;;0.85;0.60;;;8.20;99.90;;;;;;5027217;28;20054;-56
2023/10/20 09:43:36;;;;;;;1.17;0.50;;;8.20;99.90;;;;;;5028907;28;20037;-57
2023/10/20 09:46:19;;;;;;;1.70;0.50;;;8.20;99.90;;;;;;5030891;28;20320;-52
2023/10/20 09:48:47;;;;;;;0.98;0.60;;;8.20;99.90;;;;;;5027070;28;20037;-56
2023/10/20 09:51:15;;;;;;;0.77;0.40;;;8.20;99.90;;;;;;5024659;28;20052;-55
2023/10/20 09:53:42;;;;;;;1.63;0.30;;;8.10;99.90;;;;;;5031947;28;20083;-56
2023/10/20 09:56:08;;;;;;;0.85;0.63;;;8.20;99.90;;;;;;5029235;28;20036;-56
2023/10/20 09:58:36;;;;;;;0.82;0.30;;;8.10;99.90;;;;;;5030628;28;20037;-57
2023/10/20 10:01:03;;;;;;;1.17;0.40;;;8.10;99.90;;;;;;5030145;28;20075;-57
2023/10/20 10:03:42;;;;;;;1.25;0.50;;;8.10;99.90;;;;;;5030406;28;20041;-54
2023/10/20 10:06:09;;;;;;;2.35;0.40;;;8.10;99.90;;;;;;5031804;28;20412;-57
2023/10/20 10:08:38;;;;;;;0.40;0.30;;;8.10;99.90;;;;;;5029796;28;20519;-57
2023/10/20 10:11:27;;;;;;;1.50;0.40;;;8.10;99.90;;;;;;5027033;28;20045;-57
2023/10/20 10:14:01;;;;;;;0.73;0.45;;;8.00;99.90;;;;;;5030516;28;20576;-55
2023/10/20 10:16:27;;;;;;;0.38;0.30;;;8.10;99.90;;;;;;5010322;28;20051;-56
2023/10/20 10:18:55;;;;;;;0.40;0.30;;;8.10;99.90;;;;;;5032752;28;20037;-57
2023/10/20 10:21:29;;;;;;;0.38;0.30;;;8.00;99.90;;;;;;5031207;28;20223;-56
2023/10/20 10:24:07;;;;;;;1.42;0.30;;;8.00;99.90;;;;;;5025411;28;20040;-56
2023/10/20 10:26:33;;;;;;;1.85;0.30;;;8.10;99.90;;;;;;5024199;28;20041;-56
2023/10/20 10:28:58;;;;;;;0.40;0.30;;;8.00;99.90;;;;;;5023452;28;20418;-57
2023/10/20 10:31:35;;;;;;;1.57;0.20;;;8.00;99.90;;;;;;5029058;28;20026;-57
2023/10/20 10:34:04;;;;;;;0.45;0.30;;;8.00;99.90;;;;;;5026630;28;20120;-56
2023/10/20 10:36:48;;;;;;;0.70;0.30;;;8.00;99.90;;;;;;5033757;28;20064;-57
2023/10/20 10:39:22;;;;;;;1.38;0.20;;;8.00;99.90;;;;;;5027216;28;20049;-56
2023/10/20 10:41:48;;;;;;;0.35;0.30;;;8.00;99.90;;;;;;5032547;28;20044;-57
2023/10/20 10:44:14;;;;;;;0.80;0.20;;;8.00;99.90;;;;;;5028895;28;20045;-55
2023/10/20 10:46:39;;;;;;;1.03;0.30;;;8.00;99.90;;;;;;5032189;28;20587;-55
2023/10/20 10:49:09;;;;;;;0.30;0.20;;;8.00;99.90;;;;;;5008471;28;20323;-58
2023/10/20 10:51:46;;;;;;;1.30;0.30;;;8.00;99.90;;;;;;5027134;28;20043;-56
2023/10/20 10:54:12;;;;;;;0.47;0.40;;;8.00;99.90;;;;;;5028739;28;20043;-57
2023/10/20 10:56:38;;;;;;;;;;;8.00;99.90;;;;;;5027743;28;20034;-56
2023/10/20 10:59:04;;;;;;;3.30;0.40;;;8.00;99.90;;;;;;5027475;28;19927;-54
2023/10/20 11:01:30;;;;;;;0.40;0.20;;;8.00;99.90;;;;;;5028884;28;20035;-57
2023/10/20 11:03:57;;;;;;;0.30;0.20;;;8.00;99.90;;;;;;5029136;28;20291;-56
2023/10/20 11:06:22;;;;;;;0.52;0.20;;;8.00;99.90;;;;;;5030545;28;20034;-57
2023/10/20 11:08:48;;;;;;;3.95;0.30;;;7.90;99.90;;;;;;5029246;28;20032;-56
2023/10/20 11:11:15;;;;;;;0.37;0.23;;;7.90;99.90;;;;;;5031391;28;20049;-55
2023/10/20 11:13:41;;;;;;;0.38;0.20;;;7.90;99.90;;;;;;5028510;28;20299;-55
2023/10/20 11:16:06;;;;;;;0.63;0.20;;;7.90;99.90;;;;;;5031560;28;20042;-54
2023/10/20 11:18:33;;;;;;;0.30;0.20;;;7.90;99.90;;;;;;5028003;28;20032;-55
2023/10/20 11:20:59;;;;;;;1.08;0.20;;;7.90;99.90;;;;;;5030408;28;20041;-55
2023/10/20 11:23:31;;;;;;;0.20;0.20;;;7.90;99.90;;;;;;5033212;28;20051;-57
2023/10/20 11:25:57;;;;;;;0.20;0.20;;;7.90;99.90;;;;;;5026269;28;20335;-56
2023/10/20 11:28:23;;;;;;;0.20;0.20;;;7.90;99.90;;;;;;5029308;28;20555;-55
2023/10/20 11:30:49;;;;;;;0.65;0.20;;;7.90;99.90;;;;;;5033020;28;20033;-55
2023/10/20 11:33:15;;;;;;;0.93;0.30;;;7.90;99.90;;;;;;5031601;28;20515;-56
2023/10/20 11:35:42;;;;;;;0.30;0.20;;;7.90;99.90;;;;;;5026531;28;20486;-56
2023/10/20 11:38:07;;;;;;;0.93;0.20;;;7.90;99.90;;;;;;5010786;28;20049;-56
2023/10/20 11:40:33;;;;;;;0.30;0.22;;;7.90;99.90;;;;;;5029848;28;20128;-56
2023/10/20 11:42:59;;;;;;;1.97;0.47;;;7.90;99.90;;;;;;5029111;28;20041;-56
2023/10/20 11:45:24;;;;;;;2.30;0.28;;;7.90;99.90;;;;;;5027099;28;20104;-54
2023/10/20 11:47:51;;;;;;;0.30;0.20;;;7.80;99.90;;;;;;5028951;28;20052;-57
2023/10/20 11:50:19;;;;;;;0.40;0.30;;;7.90;99.90;;;;;;5031800;28;20460;-55
2023/10/20 11:52:45;;;;;;;1.75;0.20;;;7.90;99.90;;;;;;5027466;28;20041;-55
2023/10/20 11:55:11;;;;;;;1.13;0.20;;;7.90;99.90;;;;;;5024772;28;20654;-56
2023/10/20 11:57:40;;;;;;;;;;;7.90;99.90;;;;;;5029349;28;20033;-56
2023/10/20 12:00:08;;;;;;;1.20;0.30;;;7.90;99.90;;;;;;5025380;28;19917;-55
2023/10/20 12:02:40;;;;;;;0.50;0.20;;;7.90;99.90;;;;;;5025873;28;20302;-54
2023/10/20 12:05:07;;;;;;;0.20;0.20;;;7.90;99.90;;;;;;5022310;28;20131;-57
2023/10/20 12:07:33;;;;;;;0.22;0.20;;;7.90;99.90;;;;;;5031978;28;20056;-56
2023/10/20 12:09:58;;;;;;;0.30;0.22;;;7.90;99.90;;;;;;5019274;28;20052;-56
2023/10/20 12:12:24;;;;;;;0.10;0.10;;;7.90;99.90;;;;;;5028724;28;20404;-56
2023/10/20 12:14:50;;;;;;;0.65;0.20;;;7.90;99.90;;;;;;5023938;28;20051;-57
2023/10/20 12:17:16;;;;;;;0.20;0.10;;;7.90;99.90;;;;;;5030527;28;20038;-56
2023/10/20 12:19:41;;;;;;;0.20;0.10;;;7.90;99.90;;;;;;5031189;28;20046;-57
2023/10/20 12:22:08;;;;;;;2.20;0.22;;;7.90;99.90;;;;;;5029585;28;20049;-55
2023/10/20 12:24:35;;;;;;;0.15;0.13;;;7.90;99.90;;;;;;5024611;28;20115;-57
2023/10/20 12:27:01;;;;;;;0.45;0.20;;;7.90;99.90;;;;;;5025636;28;20041;-57
2023/10/20 12:29:26;;;;;;;0.95;0.20;;;7.90;99.90;;;;;;5027332;28;20053;-56
2023/10/20 12:31:54;;;;;;;1.85;0.20;;;8.00;99.90;;;;;;5028667;28;20040;-57
2023/10/20 12:34:20;;;;;;;0.20;0.10;;;8.00;99.90;;;;;;5025933;28;20037;-56
2023/10/20 12:36:48;;;;;;;0.43;0.10;;;7.90;99.90;;;;;;5031024;28;20025;-56
2023/10/20 12:39:17;;;;;;;0.20;0.10;;;8.00;99.90;;;;;;5025001;28;20044;-56
2023/10/20 12:41:52;;;;;;;0.20;0.20;;;7.90;99.90;;;;;;5030580;28;20518;-57
2023/10/20 12:44:18;;;;;;;0.38;0.20;;;7.90;99.90;;;;;;5029283;28;20125;-56
2023/10/20 12:46:44;;;;;;;0.30;0.20;;;7.90;99.90;;;;;;5028867;28;20457;-56
2023/10/20 12:49:10;;;;;;;0.22;0.20;;;7.80;99.90;;;;;;5028220;28;20493;-57
2023/10/20 12:51:36;;;;;;;0.20;0.20;;;7.80;99.90;;;;;;5024624;28;20086;-57
2023/10/20 12:54:02;;;;;;;0.15;0.10;;;7.80;99.90;;;;;;5024662;28;20217;-55
2023/10/20 12:56:28;;;;;;;0.30;0.20;;;7.80;99.90;;;;;;5025482;28;20041;-57
2023/10/20 12:58:54;;;;;;;1.67;0.15;;;7.70;99.90;;;;;;5025254;28;20048;-57
2023/10/20 13:01:20;;;;;;;0.30;0.20;;;7.70;99.90;;;;;;5025451;28;20140;-57
2023/10/20 13:03:48;;;;;;;0.40;0.25;;;7.70;99.90;;;;;;5030668;28;20034;-55
2023/10/20 13:06:14;;;;;;;0.22;0.20;;;7.70;99.90;;;;;;5031834;28;20114;-58
2023/10/20 13:08:42;;;;;;;0.40;0.20;;;7.70;99.90;;;;;;5034210;28;20528;-57
2023/10/20 13:11:08;;;;;;;0.68;0.15;;;7.70;99.90;;;;;;5034724;28;20042;-56